sensor_id;sensor_type;location;lat;lon;timestamp;P1;durP1;ratioP1;P2;durP2;ratioP2
32455;SDS011;18912;43.270;27.942;2023-07-31T00:02:20;8.00;;;3.63;;
32455;SDS011;18912;43.270;27.942;2023-07-31T00:04:45;6.37;;;3.67;;
32455;SDS011;18912;43.270;27.942;2023-07-31T00:07:11;3.33;;;2.13;;
32455;SDS011;18912;43.270;27.942;2023-07-31T00:09:36;6.83;;;3.10;;
32455;SDS011;18912;43.270;27.942;2023-07-31T00:12:02;8.57;;;3.90;;
32455;SDS011;18912;43.270;27.942;2023-07-31T00:14:28;8.00;;;3.67;;
32455;SDS011;18912;43.270;27.942;2023-07-31T00:16:53;7.20;;;3.73;;
32455;SDS011;18912;43.270;27.942;2023-07-31T00:19:19;6.67;;;3.47;;
32455;SDS011;18912;43.270;27.942;2023-07-31T00:21:45;7.63;;;3.97;;
32455;SDS011;18912;43.270;27.942;2023-07-31T00:24:10;7.73;;;3.50;;
32455;SDS011;18912;43.270;27.942;2023-07-31T00:26:36;8.53;;;4.10;;
32455;SDS011;18912;43.270;27.942;2023-07-31T00:29:01;6.10;;;3.57;;
32455;SDS011;18912;43.270;27.942;2023-07-31T00:31:27;8.43;;;3.60;;
32455;SDS011;18912;43.270;27.942;2023-07-31T00:33:53;15.17;;;3.83;;
32455;SDS011;18912;43.270;27.942;2023-07-31T00:36:18;8.67;;;3.93;;
32455;SDS011;18912;43.270;27.942;2023-07-31T00:38:44;8.27;;;3.30;;
32455;SDS011;18912;43.270;27.942;2023-07-31T00:41:09;10.57;;;3.50;;
32455;SDS011;18912;43.270;27.942;2023-07-31T00:43:35;8.10;;;3.90;;
32455;SDS011;18912;43.270;27.942;2023-07-31T00:46:00;8.63;;;3.90;;
32455;SDS011;18912;43.270;27.942;2023-07-31T00:48:26;8.90;;;4.37;;
32455;SDS011;18912;43.270;27.942;2023-07-31T00:50:51;6.50;;;3.20;;
32455;SDS011;18912;43.270;27.942;2023-07-31T00:53:17;7.30;;;3.87;;
32455;SDS011;18912;43.270;27.942;2023-07-31T00:55:43;5.60;;;3.03;;
32455;SDS011;18912;43.270;27.942;2023-07-31T00:58:09;3.97;;;3.10;;
32455;SDS011;18912;43.270;27.942;2023-07-31T01:00:35;8.57;;;3.87;;
32455;SDS011;18912;43.270;27.942;2023-07-31T01:03:00;6.30;;;3.70;;
32455;SDS011;18912;43.270;27.942;2023-07-31T01:05:33;4.83;;;3.60;;
32455;SDS011;18912;43.270;27.942;2023-07-31T01:10:56;8.57;;;3.55;;
32455;SDS011;18912;43.270;27.942;2023-07-31T01:13:32;4.63;;;3.10;;
32455;SDS011;18912;43.270;27.942;2023-07-31T01:15:58;9.20;;;4.17;;
32455;SDS011;18912;43.270;27.942;2023-07-31T01:18:23;10.20;;;3.73;;
32455;SDS011;18912;43.270;27.942;2023-07-31T01:20:54;4.33;;;3.37;;
32455;SDS011;18912;43.270;27.942;2023-07-31T01:26:12;8.05;;;3.50;;
32455;SDS011;18912;43.270;27.942;2023-07-31T01:28:44;5.80;;;3.50;;
32455;SDS011;18912;43.270;27.942;2023-07-31T01:31:24;4.47;;;3.15;;
32455;SDS011;18912;43.270;27.942;2023-07-31T01:33:52;9.27;;;3.53;;
32455;SDS011;18912;43.270;27.942;2023-07-31T01:36:19;11.40;;;3.50;;
32455;SDS011;18912;43.270;27.942;2023-07-31T01:38:45;11.98;;;3.47;;
32455;SDS011;18912;43.270;27.942;2023-07-31T01:41:11;9.90;;;3.93;;
32455;SDS011;18912;43.270;27.942;2023-07-31T01:43:36;10.27;;;3.83;;
32455;SDS011;18912;43.270;27.942;2023-07-31T01:46:02;5.27;;;3.00;;
32455;SDS011;18912;43.270;27.942;2023-07-31T01:48:27;7.87;;;3.53;;
32455;SDS011;18912;43.270;27.942;2023-07-31T01:50:53;15.80;;;4.03;;
32455;SDS011;18912;43.270;27.942;2023-07-31T01:53:18;12.97;;;4.70;;
32455;SDS011;18912;43.270;27.942;2023-07-31T01:55:44;8.77;;;4.33;;
32455;SDS011;18912;43.270;27.942;2023-07-31T01:58:09;5.73;;;4.37;;
32455;SDS011;18912;43.270;27.942;2023-07-31T02:00:35;5.47;;;3.27;;
32455;SDS011;18912;43.270;27.942;2023-07-31T02:03:00;13.83;;;4.00;;
32455;SDS011;18912;43.270;27.942;2023-07-31T02:05:26;5.13;;;4.00;;
32455;SDS011;18912;43.270;27.942;2023-07-31T02:07:51;8.10;;;3.50;;
32455;SDS011;18912;43.270;27.942;2023-07-31T02:10:17;8.23;;;3.27;;
32455;SDS011;18912;43.270;27.942;2023-07-31T02:12:42;9.80;;;3.93;;
32455;SDS011;18912;43.270;27.942;2023-07-31T02:15:08;11.67;;;3.00;;
32455;SDS011;18912;43.270;27.942;2023-07-31T02:17:33;9.13;;;3.77;;
32455;SDS011;18912;43.270;27.942;2023-07-31T02:19:59;4.40;;;3.00;;
32455;SDS011;18912;43.270;27.942;2023-07-31T02:22:25;5.70;;;3.57;;
32455;SDS011;18912;43.270;27.942;2023-07-31T02:24:50;8.30;;;3.67;;
32455;SDS011;18912;43.270;27.942;2023-07-31T02:27:16;4.83;;;3.00;;
32455;SDS011;18912;43.270;27.942;2023-07-31T02:29:41;7.00;;;3.33;;
32455;SDS011;18912;43.270;27.942;2023-07-31T02:32:07;7.97;;;3.13;;
32455;SDS011;18912;43.270;27.942;2023-07-31T02:34:32;4.40;;;3.00;;
32455;SDS011;18912;43.270;27.942;2023-07-31T02:36:58;7.70;;;3.70;;
32455;SDS011;18912;43.270;27.942;2023-07-31T02:39:23;7.80;;;3.30;;
32455;SDS011;18912;43.270;27.942;2023-07-31T02:41:49;6.53;;;3.53;;
32455;SDS011;18912;43.270;27.942;2023-07-31T02:44:14;7.13;;;3.13;;
32455;SDS011;18912;43.270;27.942;2023-07-31T02:46:40;13.57;;;6.70;;
32455;SDS011;18912;43.270;27.942;2023-07-31T02:49:05;10.57;;;5.80;;
32455;SDS011;18912;43.270;27.942;2023-07-31T02:51:31;11.33;;;6.60;;
32455;SDS011;18912;43.270;27.942;2023-07-31T02:53:56;11.77;;;6.50;;
32455;SDS011;18912;43.270;27.942;2023-07-31T02:56:22;7.73;;;4.80;;
32455;SDS011;18912;43.270;27.942;2023-07-31T02:58:47;9.40;;;4.70;;
32455;SDS011;18912;43.270;27.942;2023-07-31T03:01:13;9.60;;;4.27;;
32455;SDS011;18912;43.270;27.942;2023-07-31T03:03:38;9.87;;;4.43;;
32455;SDS011;18912;43.270;27.942;2023-07-31T03:06:04;10.63;;;4.80;;
32455;SDS011;18912;43.270;27.942;2023-07-31T03:08:29;13.23;;;4.90;;
32455;SDS011;18912;43.270;27.942;2023-07-31T03:10:56;7.30;;;4.70;;
32455;SDS011;18912;43.270;27.942;2023-07-31T03:13:22;6.45;;;4.43;;
32455;SDS011;18912;43.270;27.942;2023-07-31T03:15:48;7.30;;;4.80;;
32455;SDS011;18912;43.270;27.942;2023-07-31T03:20:42;6.95;;;4.50;;
32455;SDS011;18912;43.270;27.942;2023-07-31T03:23:09;9.65;;;5.13;;
32455;SDS011;18912;43.270;27.942;2023-07-31T03:25:34;17.37;;;7.80;;
32455;SDS011;18912;43.270;27.942;2023-07-31T03:28:00;13.47;;;7.83;;
32455;SDS011;18912;43.270;27.942;2023-07-31T03:30:25;18.30;;;9.57;;
32455;SDS011;18912;43.270;27.942;2023-07-31T03:32:51;15.10;;;8.27;;
32455;SDS011;18912;43.270;27.942;2023-07-31T03:35:17;11.88;;;7.18;;
32455;SDS011;18912;43.270;27.942;2023-07-31T03:37:42;10.13;;;6.20;;
32455;SDS011;18912;43.270;27.942;2023-07-31T03:40:08;11.90;;;4.73;;
32455;SDS011;18912;43.270;27.942;2023-07-31T03:42:34;13.02;;;4.97;;
32455;SDS011;18912;43.270;27.942;2023-07-31T03:45:00;7.03;;;4.20;;
32455;SDS011;18912;43.270;27.942;2023-07-31T03:47:26;13.30;;;3.90;;
32455;SDS011;18912;43.270;27.942;2023-07-31T03:49:51;8.68;;;3.60;;
32455;SDS011;18912;43.270;27.942;2023-07-31T03:52:17;8.10;;;3.20;;
32455;SDS011;18912;43.270;27.942;2023-07-31T03:54:42;5.93;;;3.00;;
32455;SDS011;18912;43.270;27.942;2023-07-31T03:59:35;7.13;;;3.22;;
32455;SDS011;18912;43.270;27.942;2023-07-31T04:02:00;8.17;;;3.03;;
32455;SDS011;18912;43.270;27.942;2023-07-31T04:04:26;4.93;;;3.13;;
32455;SDS011;18912;43.270;27.942;2023-07-31T04:06:51;11.77;;;3.37;;
32455;SDS011;18912;43.270;27.942;2023-07-31T04:09:17;6.27;;;2.87;;
32455;SDS011;18912;43.270;27.942;2023-07-31T04:11:42;11.53;;;3.30;;
32455;SDS011;18912;43.270;27.942;2023-07-31T04:14:08;10.50;;;4.20;;
32455;SDS011;18912;43.270;27.942;2023-07-31T04:16:34;4.07;;;2.60;;
32455;SDS011;18912;43.270;27.942;2023-07-31T04:19:00;12.70;;;3.33;;
32455;SDS011;18912;43.270;27.942;2023-07-31T04:21:25;9.90;;;3.80;;
32455;SDS011;18912;43.270;27.942;2023-07-31T04:23:51;11.67;;;5.17;;
32455;SDS011;18912;43.270;27.942;2023-07-31T04:26:16;8.27;;;4.87;;
32455;SDS011;18912;43.270;27.942;2023-07-31T04:28:42;7.32;;;4.13;;
32455;SDS011;18912;43.270;27.942;2023-07-31T04:31:08;8.70;;;4.10;;
32455;SDS011;18912;43.270;27.942;2023-07-31T04:33:33;5.30;;;3.20;;
32455;SDS011;18912;43.270;27.942;2023-07-31T04:35:59;9.57;;;3.10;;
32455;SDS011;18912;43.270;27.942;2023-07-31T04:38:25;12.90;;;3.33;;
32455;SDS011;18912;43.270;27.942;2023-07-31T04:40:50;7.03;;;3.03;;
32455;SDS011;18912;43.270;27.942;2023-07-31T04:43:16;7.57;;;3.20;;
32455;SDS011;18912;43.270;27.942;2023-07-31T04:45:45;8.80;;;2.60;;
32455;SDS011;18912;43.270;27.942;2023-07-31T04:48:15;7.72;;;2.80;;
32455;SDS011;18912;43.270;27.942;2023-07-31T04:50:41;10.27;;;3.27;;
32455;SDS011;18912;43.270;27.942;2023-07-31T04:53:06;3.47;;;2.50;;
32455;SDS011;18912;43.270;27.942;2023-07-31T04:55:32;5.83;;;2.13;;
32455;SDS011;18912;43.270;27.942;2023-07-31T04:57:58;3.23;;;2.50;;
32455;SDS011;18912;43.270;27.942;2023-07-31T05:00:24;6.47;;;2.80;;
32455;SDS011;18912;43.270;27.942;2023-07-31T05:02:50;5.43;;;3.07;;
32455;SDS011;18912;43.270;27.942;2023-07-31T05:05:15;5.80;;;2.87;;
32455;SDS011;18912;43.270;27.942;2023-07-31T05:07:40;8.57;;;3.00;;
32455;SDS011;18912;43.270;27.942;2023-07-31T05:10:06;5.93;;;2.27;;
32455;SDS011;18912;43.270;27.942;2023-07-31T05:12:32;3.97;;;2.38;;
32455;SDS011;18912;43.270;27.942;2023-07-31T05:14:57;5.23;;;2.63;;
32455;SDS011;18912;43.270;27.942;2023-07-31T05:17:23;7.97;;;2.53;;
32455;SDS011;18912;43.270;27.942;2023-07-31T05:19:48;7.73;;;3.00;;
32455;SDS011;18912;43.270;27.942;2023-07-31T05:22:14;9.07;;;2.70;;
32455;SDS011;18912;43.270;27.942;2023-07-31T05:24:39;13.43;;;3.03;;
32455;SDS011;18912;43.270;27.942;2023-07-31T05:27:05;6.33;;;3.27;;
32455;SDS011;18912;43.270;27.942;2023-07-31T05:29:31;5.15;;;2.88;;
32455;SDS011;18912;43.270;27.942;2023-07-31T05:31:56;7.27;;;3.10;;
32455;SDS011;18912;43.270;27.942;2023-07-31T05:34:22;4.70;;;2.80;;
32455;SDS011;18912;43.270;27.942;2023-07-31T05:36:49;8.83;;;3.30;;
32455;SDS011;18912;43.270;27.942;2023-07-31T05:41:39;5.82;;;3.50;;
32455;SDS011;18912;43.270;27.942;2023-07-31T05:44:05;5.43;;;3.30;;
32455;SDS011;18912;43.270;27.942;2023-07-31T05:46:30;11.63;;;3.20;;
32455;SDS011;18912;43.270;27.942;2023-07-31T05:48:56;4.67;;;3.50;;
32455;SDS011;18912;43.270;27.942;2023-07-31T05:51:21;4.23;;;3.13;;
32455;SDS011;18912;43.270;27.942;2023-07-31T05:53:47;3.97;;;2.87;;
32455;SDS011;18912;43.270;27.942;2023-07-31T05:56:13;3.80;;;3.37;;
32455;SDS011;18912;43.270;27.942;2023-07-31T05:58:38;5.13;;;3.43;;
32455;SDS011;18912;43.270;27.942;2023-07-31T06:01:04;5.63;;;3.40;;
32455;SDS011;18912;43.270;27.942;2023-07-31T06:03:29;6.07;;;3.47;;
32455;SDS011;18912;43.270;27.942;2023-07-31T06:05:55;5.15;;;3.42;;
32455;SDS011;18912;43.270;27.942;2023-07-31T06:08:21;10.73;;;3.00;;
32455;SDS011;18912;43.270;27.942;2023-07-31T06:10:46;5.53;;;3.33;;
32455;SDS011;18912;43.270;27.942;2023-07-31T06:13:12;5.47;;;3.37;;
32455;SDS011;18912;43.270;27.942;2023-07-31T06:15:37;6.67;;;3.23;;
32455;SDS011;18912;43.270;27.942;2023-07-31T06:18:03;14.20;;;3.30;;
32455;SDS011;18912;43.270;27.942;2023-07-31T06:20:31;4.28;;;2.92;;
32455;SDS011;18912;43.270;27.942;2023-07-31T06:22:56;6.77;;;3.00;;
32455;SDS011;18912;43.270;27.942;2023-07-31T06:25:22;3.57;;;2.83;;
32455;SDS011;18912;43.270;27.942;2023-07-31T06:27:47;13.27;;;3.13;;
32455;SDS011;18912;43.270;27.942;2023-07-31T06:30:13;5.53;;;3.37;;
32455;SDS011;18912;43.270;27.942;2023-07-31T06:32:38;5.40;;;2.70;;
32455;SDS011;18912;43.270;27.942;2023-07-31T06:35:06;2.88;;;2.58;;
32455;SDS011;18912;43.270;27.942;2023-07-31T06:37:32;3.13;;;2.55;;
32455;SDS011;18912;43.270;27.942;2023-07-31T06:39:57;5.50;;;2.77;;
32455;SDS011;18912;43.270;27.942;2023-07-31T06:42:23;9.80;;;2.90;;
32455;SDS011;18912;43.270;27.942;2023-07-31T06:44:49;6.53;;;3.27;;
32455;SDS011;18912;43.270;27.942;2023-07-31T06:47:14;3.67;;;2.77;;
32455;SDS011;18912;43.270;27.942;2023-07-31T06:49:40;6.87;;;2.90;;
32455;SDS011;18912;43.270;27.942;2023-07-31T06:52:05;6.40;;;3.40;;
32455;SDS011;18912;43.270;27.942;2023-07-31T06:54:31;4.45;;;3.10;;
32455;SDS011;18912;43.270;27.942;2023-07-31T06:56:57;5.50;;;3.10;;
32455;SDS011;18912;43.270;27.942;2023-07-31T06:59:23;7.00;;;2.88;;
32455;SDS011;18912;43.270;27.942;2023-07-31T07:01:48;5.57;;;3.53;;
32455;SDS011;18912;43.270;27.942;2023-07-31T07:04:14;10.00;;;3.37;;
32455;SDS011;18912;43.270;27.942;2023-07-31T07:06:40;8.63;;;3.90;;
32455;SDS011;18912;43.270;27.942;2023-07-31T07:09:05;6.33;;;3.00;;
32455;SDS011;18912;43.270;27.942;2023-07-31T07:11:31;6.77;;;2.87;;
32455;SDS011;18912;43.270;27.942;2023-07-31T07:13:56;5.88;;;3.33;;
32455;SDS011;18912;43.270;27.942;2023-07-31T07:16:22;5.20;;;3.30;;
32455;SDS011;18912;43.270;27.942;2023-07-31T07:18:47;3.90;;;2.93;;
32455;SDS011;18912;43.270;27.942;2023-07-31T07:21:13;9.70;;;3.33;;
32455;SDS011;18912;43.270;27.942;2023-07-31T07:23:41;6.07;;;3.17;;
32455;SDS011;18912;43.270;27.942;2023-07-31T07:26:07;10.98;;;3.22;;
32455;SDS011;18912;43.270;27.942;2023-07-31T07:28:33;4.23;;;3.10;;
32455;SDS011;18912;43.270;27.942;2023-07-31T07:30:58;4.73;;;3.53;;
32455;SDS011;18912;43.270;27.942;2023-07-31T07:33:24;3.63;;;3.20;;
32455;SDS011;18912;43.270;27.942;2023-07-31T07:35:49;3.90;;;3.27;;
32455;SDS011;18912;43.270;27.942;2023-07-31T07:38:15;8.87;;;3.87;;
32455;SDS011;18912;43.270;27.942;2023-07-31T07:40:40;14.90;;;3.37;;
32455;SDS011;18912;43.270;27.942;2023-07-31T07:43:06;10.38;;;2.92;;
32455;SDS011;18912;43.270;27.942;2023-07-31T07:45:32;4.35;;;2.97;;
32455;SDS011;18912;43.270;27.942;2023-07-31T07:47:57;4.30;;;2.63;;
32455;SDS011;18912;43.270;27.942;2023-07-31T07:50:24;4.60;;;3.00;;
32455;SDS011;18912;43.270;27.942;2023-07-31T07:52:50;6.18;;;2.95;;
32455;SDS011;18912;43.270;27.942;2023-07-31T07:55:15;5.37;;;2.67;;
32455;SDS011;18912;43.270;27.942;2023-07-31T07:57:41;6.13;;;2.80;;
32455;SDS011;18912;43.270;27.942;2023-07-31T08:00:07;3.90;;;2.80;;
32455;SDS011;18912;43.270;27.942;2023-07-31T08:02:32;3.42;;;2.90;;
32455;SDS011;18912;43.270;27.942;2023-07-31T08:04:58;6.73;;;3.13;;
32455;SDS011;18912;43.270;27.942;2023-07-31T08:07:23;6.40;;;2.30;;
32455;SDS011;18912;43.270;27.942;2023-07-31T08:09:49;8.50;;;2.53;;
32455;SDS011;18912;43.270;27.942;2023-07-31T08:12:14;2.97;;;2.53;;
32455;SDS011;18912;43.270;27.942;2023-07-31T08:14:40;3.57;;;2.53;;
32455;SDS011;18912;43.270;27.942;2023-07-31T08:17:05;8.93;;;3.00;;
32455;SDS011;18912;43.270;27.942;2023-07-31T08:19:31;3.85;;;2.72;;
32455;SDS011;18912;43.270;27.942;2023-07-31T08:21:56;4.77;;;2.90;;
32455;SDS011;18912;43.270;27.942;2023-07-31T08:24:22;3.17;;;2.80;;
32455;SDS011;18912;43.270;27.942;2023-07-31T08:26:48;4.25;;;2.70;;
32455;SDS011;18912;43.270;27.942;2023-07-31T08:29:13;7.17;;;3.10;;
32455;SDS011;18912;43.270;27.942;2023-07-31T08:31:39;3.40;;;2.47;;
32455;SDS011;18912;43.270;27.942;2023-07-31T08:34:04;3.13;;;2.77;;
32455;SDS011;18912;43.270;27.942;2023-07-31T08:36:30;15.70;;;3.07;;
32455;SDS011;18912;43.270;27.942;2023-07-31T08:38:55;5.55;;;2.30;;
32455;SDS011;18912;43.270;27.942;2023-07-31T08:41:21;6.03;;;2.90;;
32455;SDS011;18912;43.270;27.942;2023-07-31T08:43:46;2.90;;;2.63;;
32455;SDS011;18912;43.270;27.942;2023-07-31T08:46:14;5.07;;;2.60;;
32455;SDS011;18912;43.270;27.942;2023-07-31T08:48:43;5.55;;;2.60;;
32455;SDS011;18912;43.270;27.942;2023-07-31T08:51:09;3.08;;;2.65;;
32455;SDS011;18912;43.270;27.942;2023-07-31T08:53:35;4.18;;;2.85;;
32455;SDS011;18912;43.270;27.942;2023-07-31T08:56:00;2.92;;;2.50;;
32455;SDS011;18912;43.270;27.942;2023-07-31T08:58:31;3.75;;;2.70;;
32455;SDS011;18912;43.270;27.942;2023-07-31T09:00:57;6.45;;;3.25;;
32455;SDS011;18912;43.270;27.942;2023-07-31T09:03:26;4.95;;;2.78;;
32455;SDS011;18912;43.270;27.942;2023-07-31T09:05:51;8.35;;;3.00;;
32455;SDS011;18912;43.270;27.942;2023-07-31T09:08:21;3.45;;;2.85;;
32455;SDS011;18912;43.270;27.942;2023-07-31T09:10:47;2.63;;;2.35;;
32455;SDS011;18912;43.270;27.942;2023-07-31T09:13:15;3.75;;;2.60;;
32455;SDS011;18912;43.270;27.942;2023-07-31T09:18:08;6.43;;;2.88;;
32455;SDS011;18912;43.270;27.942;2023-07-31T09:20:34;3.17;;;2.72;;
32455;SDS011;18912;43.270;27.942;2023-07-31T09:25:32;4.50;;;2.85;;
32455;SDS011;18912;43.270;27.942;2023-07-31T09:28:16;6.47;;;2.90;;
32455;SDS011;18912;43.270;27.942;2023-07-31T09:33:14;4.90;;;2.90;;
32455;SDS011;18912;43.270;27.942;2023-07-31T09:35:41;3.35;;;2.53;;
32455;SDS011;18912;43.270;27.942;2023-07-31T09:38:08;3.35;;;2.38;;
32455;SDS011;18912;43.270;27.942;2023-07-31T09:40:38;10.48;;;2.70;;
32455;SDS011;18912;43.270;27.942;2023-07-31T09:43:06;5.57;;;3.08;;
32455;SDS011;18912;43.270;27.942;2023-07-31T09:45:39;2.92;;;2.60;;
32455;SDS011;18912;43.270;27.942;2023-07-31T09:48:10;3.83;;;2.75;;
32455;SDS011;18912;43.270;27.942;2023-07-31T09:50:41;4.82;;;2.55;;
32455;SDS011;18912;43.270;27.942;2023-07-31T09:53:08;4.28;;;2.53;;
32455;SDS011;18912;43.270;27.942;2023-07-31T09:55:34;3.30;;;2.40;;
32455;SDS011;18912;43.270;27.942;2023-07-31T09:58:05;4.00;;;2.78;;
32455;SDS011;18912;43.270;27.942;2023-07-31T10:00:32;4.18;;;2.70;;
32455;SDS011;18912;43.270;27.942;2023-07-31T10:02:59;3.65;;;2.60;;
32455;SDS011;18912;43.270;27.942;2023-07-31T10:05:36;3.10;;;2.30;;
32455;SDS011;18912;43.270;27.942;2023-07-31T10:08:02;2.83;;;2.50;;
32455;SDS011;18912;43.270;27.942;2023-07-31T10:10:29;3.05;;;2.30;;
32455;SDS011;18912;43.270;27.942;2023-07-31T10:12:56;3.25;;;2.60;;
32455;SDS011;18912;43.270;27.942;2023-07-31T10:15:23;4.28;;;2.78;;
32455;SDS011;18912;43.270;27.942;2023-07-31T10:20:15;3.13;;;2.38;;
32455;SDS011;18912;43.270;27.942;2023-07-31T10:22:41;4.72;;;2.42;;
32455;SDS011;18912;43.270;27.942;2023-07-31T10:25:13;4.47;;;2.30;;
32455;SDS011;18912;43.270;27.942;2023-07-31T10:27:40;3.97;;;2.35;;
32455;SDS011;18912;43.270;27.942;2023-07-31T10:30:07;5.32;;;2.55;;
32455;SDS011;18912;43.270;27.942;2023-07-31T10:32:36;5.45;;;2.40;;
32455;SDS011;18912;43.270;27.942;2023-07-31T10:35:05;6.20;;;2.72;;
32455;SDS011;18912;43.270;27.942;2023-07-31T10:40:18;3.45;;;2.40;;
32455;SDS011;18912;43.270;27.942;2023-07-31T10:45:39;3.25;;;2.00;;
32455;SDS011;18912;43.270;27.942;2023-07-31T10:48:14;2.25;;;1.90;;
32455;SDS011;18912;43.270;27.942;2023-07-31T10:50:47;5.20;;;2.40;;
32455;SDS011;18912;43.270;27.942;2023-07-31T10:53:24;2.80;;;2.20;;
32455;SDS011;18912;43.270;27.942;2023-07-31T10:55:58;2.15;;;1.95;;
32455;SDS011;18912;43.270;27.942;2023-07-31T10:58:24;2.55;;;1.95;;
32455;SDS011;18912;43.270;27.942;2023-07-31T11:00:51;2.70;;;1.83;;
32455;SDS011;18912;43.270;27.942;2023-07-31T11:03:24;2.60;;;2.10;;
32455;SDS011;18912;43.270;27.942;2023-07-31T11:08:32;2.53;;;2.10;;
32455;SDS011;18912;43.270;27.942;2023-07-31T11:13:31;2.53;;;2.15;;
32455;SDS011;18912;43.270;27.942;2023-07-31T11:15:57;2.28;;;2.05;;
32455;SDS011;18912;43.270;27.942;2023-07-31T11:18:25;9.02;;;2.47;;
32455;SDS011;18912;43.270;27.942;2023-07-31T11:20:52;3.20;;;2.33;;
32455;SDS011;18912;43.270;27.942;2023-07-31T11:23:18;2.40;;;2.20;;
32455;SDS011;18912;43.270;27.942;2023-07-31T11:25:44;3.20;;;2.40;;
32455;SDS011;18912;43.270;27.942;2023-07-31T11:28:13;4.27;;;2.93;;
32455;SDS011;18912;43.270;27.942;2023-07-31T11:30:41;4.85;;;2.03;;
32455;SDS011;18912;43.270;27.942;2023-07-31T11:33:08;2.58;;;2.15;;
32455;SDS011;18912;43.270;27.942;2023-07-31T11:35:35;4.57;;;2.65;;
32455;SDS011;18912;43.270;27.942;2023-07-31T11:38:11;3.60;;;2.90;;
32455;SDS011;18912;43.270;27.942;2023-07-31T11:40:46;5.78;;;2.53;;
32455;SDS011;18912;43.270;27.942;2023-07-31T11:43:12;3.10;;;2.80;;
32455;SDS011;18912;43.270;27.942;2023-07-31T11:45:42;5.65;;;2.92;;
32455;SDS011;18912;43.270;27.942;2023-07-31T11:48:18;3.92;;;3.30;;
32455;SDS011;18912;43.270;27.942;2023-07-31T11:50:44;3.13;;;2.83;;
32455;SDS011;18912;43.270;27.942;2023-07-31T11:53:11;3.72;;;3.00;;
32455;SDS011;18912;43.270;27.942;2023-07-31T11:55:38;5.50;;;2.92;;
32455;SDS011;18912;43.270;27.942;2023-07-31T11:58:04;5.40;;;3.15;;
32455;SDS011;18912;43.270;27.942;2023-07-31T12:00:30;3.05;;;2.65;;
32455;SDS011;18912;43.270;27.942;2023-07-31T12:02:56;3.72;;;2.88;;
32455;SDS011;18912;43.270;27.942;2023-07-31T12:05:22;3.20;;;2.90;;
32455;SDS011;18912;43.270;27.942;2023-07-31T12:07:52;11.60;;;3.00;;
32455;SDS011;18912;43.270;27.942;2023-07-31T12:13:00;23.52;;;3.05;;
32455;SDS011;18912;43.270;27.942;2023-07-31T12:17:59;3.63;;;2.60;;
32455;SDS011;18912;43.270;27.942;2023-07-31T12:20:25;5.32;;;2.65;;
32455;SDS011;18912;43.270;27.942;2023-07-31T12:22:50;4.80;;;2.90;;
32455;SDS011;18912;43.270;27.942;2023-07-31T12:25:16;3.70;;;2.80;;
32455;SDS011;18912;43.270;27.942;2023-07-31T12:27:44;3.20;;;2.90;;
32455;SDS011;18912;43.270;27.942;2023-07-31T12:32:54;3.53;;;2.90;;
32455;SDS011;18912;43.270;27.942;2023-07-31T12:35:20;3.53;;;2.67;;
32455;SDS011;18912;43.270;27.942;2023-07-31T12:37:46;3.20;;;2.60;;
32455;SDS011;18912;43.270;27.942;2023-07-31T12:40:11;6.68;;;3.03;;
32455;SDS011;18912;43.270;27.942;2023-07-31T12:42:37;9.02;;;3.10;;
32455;SDS011;18912;43.270;27.942;2023-07-31T12:45:03;5.50;;;3.13;;
32455;SDS011;18912;43.270;27.942;2023-07-31T12:47:30;7.40;;;3.10;;
32455;SDS011;18912;43.270;27.942;2023-07-31T12:52:20;9.55;;;3.20;;
32455;SDS011;18912;43.270;27.942;2023-07-31T12:54:46;5.33;;;3.10;;
32455;SDS011;18912;43.270;27.942;2023-07-31T12:57:11;3.30;;;3.00;;
32455;SDS011;18912;43.270;27.942;2023-07-31T12:59:37;3.43;;;3.00;;
32455;SDS011;18912;43.270;27.942;2023-07-31T13:02:02;5.67;;;3.10;;
32455;SDS011;18912;43.270;27.942;2023-07-31T13:04:28;5.93;;;3.07;;
32455;SDS011;18912;43.270;27.942;2023-07-31T13:06:53;5.57;;;3.00;;
32455;SDS011;18912;43.270;27.942;2023-07-31T13:09:19;10.90;;;2.80;;
32455;SDS011;18912;43.270;27.942;2023-07-31T13:11:44;3.17;;;2.83;;
32455;SDS011;18912;43.270;27.942;2023-07-31T13:14:10;2.60;;;2.40;;
32455;SDS011;18912;43.270;27.942;2023-07-31T13:16:36;3.28;;;2.97;;
32455;SDS011;18912;43.270;27.942;2023-07-31T13:19:01;3.20;;;2.90;;
32455;SDS011;18912;43.270;27.942;2023-07-31T13:21:27;3.33;;;2.80;;
32455;SDS011;18912;43.270;27.942;2023-07-31T13:23:52;8.90;;;3.10;;
32455;SDS011;18912;43.270;27.942;2023-07-31T13:26:18;3.27;;;2.93;;
32455;SDS011;18912;43.270;27.942;2023-07-31T13:28:43;3.20;;;2.77;;
32455;SDS011;18912;43.270;27.942;2023-07-31T13:31:09;3.30;;;3.00;;
32455;SDS011;18912;43.270;27.942;2023-07-31T13:33:36;23.23;;;3.80;;
32455;SDS011;18912;43.270;27.942;2023-07-31T13:36:01;4.83;;;2.93;;
32455;SDS011;18912;43.270;27.942;2023-07-31T13:38:27;8.03;;;3.47;;
32455;SDS011;18912;43.270;27.942;2023-07-31T13:40:52;6.80;;;3.50;;
32455;SDS011;18912;43.270;27.942;2023-07-31T13:43:18;5.93;;;3.40;;
32455;SDS011;18912;43.270;27.942;2023-07-31T13:45:43;3.67;;;3.00;;
32455;SDS011;18912;43.270;27.942;2023-07-31T13:48:09;5.20;;;3.37;;
32455;SDS011;18912;43.270;27.942;2023-07-31T13:50:35;5.83;;;2.97;;
32455;SDS011;18912;43.270;27.942;2023-07-31T13:53:00;6.07;;;3.80;;
32455;SDS011;18912;43.270;27.942;2023-07-31T13:55:26;4.10;;;3.47;;
32455;SDS011;18912;43.270;27.942;2023-07-31T13:57:52;4.07;;;3.13;;
32455;SDS011;18912;43.270;27.942;2023-07-31T14:02:44;36.55;;;5.40;;
32455;SDS011;18912;43.270;27.942;2023-07-31T14:05:09;8.37;;;3.70;;
32455;SDS011;18912;43.270;27.942;2023-07-31T14:07:35;51.87;;;5.80;;
32455;SDS011;18912;43.270;27.942;2023-07-31T14:10:00;4.40;;;3.63;;
32455;SDS011;18912;43.270;27.942;2023-07-31T14:12:26;9.30;;;3.50;;
32455;SDS011;18912;43.270;27.942;2023-07-31T14:14:52;12.23;;;3.77;;
32455;SDS011;18912;43.270;27.942;2023-07-31T14:17:17;4.07;;;3.67;;
32455;SDS011;18912;43.270;27.942;2023-07-31T14:19:43;14.63;;;3.80;;
32455;SDS011;18912;43.270;27.942;2023-07-31T14:22:08;6.97;;;4.03;;
32455;SDS011;18912;43.270;27.942;2023-07-31T14:24:35;6.75;;;3.65;;
32455;SDS011;18912;43.270;27.942;2023-07-31T14:27:00;4.93;;;3.77;;
32455;SDS011;18912;43.270;27.942;2023-07-31T14:29:26;11.80;;;3.97;;
32455;SDS011;18912;43.270;27.942;2023-07-31T14:31:52;4.80;;;3.87;;
32455;SDS011;18912;43.270;27.942;2023-07-31T14:34:17;7.33;;;4.23;;
32455;SDS011;18912;43.270;27.942;2023-07-31T14:36:43;6.37;;;3.67;;
32455;SDS011;18912;43.270;27.942;2023-07-31T14:39:09;4.50;;;3.60;;
32455;SDS011;18912;43.270;27.942;2023-07-31T14:41:35;3.73;;;3.43;;
32455;SDS011;18912;43.270;27.942;2023-07-31T14:44:00;31.80;;;4.53;;
32455;SDS011;18912;43.270;27.942;2023-07-31T14:46:26;4.03;;;3.47;;
32455;SDS011;18912;43.270;27.942;2023-07-31T14:48:51;5.30;;;4.47;;
32455;SDS011;18912;43.270;27.942;2023-07-31T14:51:17;6.10;;;3.63;;
32455;SDS011;18912;43.270;27.942;2023-07-31T14:53:43;5.60;;;3.87;;
32455;SDS011;18912;43.270;27.942;2023-07-31T14:56:09;8.20;;;3.63;;
32455;SDS011;18912;43.270;27.942;2023-07-31T14:58:34;4.73;;;3.93;;
32455;SDS011;18912;43.270;27.942;2023-07-31T15:01:00;5.00;;;3.70;;
32455;SDS011;18912;43.270;27.942;2023-07-31T15:03:25;7.47;;;4.17;;
32455;SDS011;18912;43.270;27.942;2023-07-31T15:05:51;14.90;;;3.90;;
32455;SDS011;18912;43.270;27.942;2023-07-31T15:08:16;5.37;;;4.13;;
32455;SDS011;18912;43.270;27.942;2023-07-31T15:10:44;33.35;;;5.63;;
32455;SDS011;18912;43.270;27.942;2023-07-31T15:13:10;13.20;;;4.25;;
32455;SDS011;18912;43.270;27.942;2023-07-31T15:15:35;4.37;;;3.90;;